createdAt,value
2022-08-09T03:33:53.322Z,6.
2022-08-09T03:34:29.740Z,6.
2022-08-09T03:36:11.501Z,6.
2022-08-09T03:36:29.721Z,6.
2022-08-09T03:42:28.941Z,6.
2022-08-09T03:43:31.848Z,6.
2022-08-09T03:48:30.717Z,6.
2022-08-09T03:49:30.129Z,6.
2022-08-09T03:50:31.875Z,6.
2022-08-09T03:51:55.456Z,7.
2022-08-09T03:52:29.663Z,6.
2022-08-09T03:53:32.188Z,7.
2022-08-09T03:54:30.990Z,7.
2022-08-09T03:55:30.124Z,7.
2022-08-09T03:56:29.517Z,7.
2022-08-09T03:57:28.489Z,7.
2022-08-09T03:58:28.478Z,7.
2022-08-09T03:59:52.754Z,7.
2022-08-09T04:00:29.544Z,7.
2022-08-09T04:01:28.708Z,7.
2022-08-09T04:02:28.888Z,7.
2022-08-09T04:03:45.733Z,6.
2022-08-09T04:04:36.172Z,7.
2022-08-09T04:05:29.429Z,7.
2022-08-09T04:06:28.401Z,7.
2022-08-09T04:07:47.071Z,7.
2022-08-09T04:08:29.758Z,7.
2022-08-09T04:09:48.250Z,6.
2022-08-09T04:10:30.488Z,7.
2022-08-09T04:11:28.349Z,7.
2022-08-09T04:12:30.728Z,7.
2022-08-09T04:14:37.787Z,7.
2022-08-09T04:14:54.298Z,7.
2022-08-09T04:16:17.205Z,7.
2022-08-09T04:16:29.315Z,7.
2022-08-09T04:17:29.488Z,7.
2022-08-09T04:18:28.329Z,7.
2022-08-09T04:19:30.333Z,7.
2022-08-09T04:20:29.277Z,7.
2022-08-09T04:21:28.249Z,7.
2022-08-09T04:22:28.239Z,7.00
2022-08-09T04:23:28.224Z,6.80
2022-08-09T04:24:28.214Z,6.80
2022-08-09T04:25:28.205Z,6.90
2022-08-09T04:26:35.153Z,7.09
2022-08-09T04:27:29.231Z,6.90
2022-08-09T04:28:34.053Z,6.59
2022-08-09T04:29:30.016Z,7.09
2022-08-09T04:30:28.812Z,7.40
2022-08-09T04:31:37.734Z,7.40
2022-08-09T04:32:29.192Z,7.30
2022-08-09T04:33:28.776Z,7.30
2022-08-09T04:34:30.481Z,7.00
2022-08-09T04:35:29.387Z,6.80
2022-08-09T04:36:28.133Z,7.80
2022-08-09T04:37:45.392Z,7.19
2022-08-09T04:38:28.074Z,6.80
2022-08-09T04:39:30.855Z,6.90
2022-08-09T04:40:35.875Z,7.19
2022-08-09T04:41:32.772Z,7.09
2022-08-09T04:42:28.033Z,7.19
2022-08-09T04:43:28.020Z,7.40
2022-08-09T04:44:28.013Z,7.09
2022-08-09T04:45:30.488Z,7.19
2022-08-09T04:46:36.639Z,6.69
2022-08-09T04:47:45.152Z,6.59
2022-08-09T04:48:33.496Z,7.30
2022-08-09T04:49:40.732Z,7.09
2022-08-09T04:50:33.614Z,7.19
2022-08-09T04:51:27.939Z,7.50
2022-08-09T04:52:27.954Z,7.09
2022-08-09T04:53:27.917Z,7.09
2022-08-09T04:54:27.909Z,7.50
2022-08-09T04:55:27.901Z,7.19
2022-08-09T04:56:27.888Z,7.50
2022-08-09T04:57:54.249Z,7.40
2022-08-09T04:58:27.874Z,7.00
2022-08-09T04:59:30.197Z,7.00
2022-08-09T05:00:31.899Z,7.50
2022-08-09T05:01:27.842Z,7.30
2022-08-09T05:02:27.831Z,7.09
2022-08-09T05:03:42.573Z,7.19
2022-08-09T05:04:31.290Z,7.09
2022-08-09T05:05:32.131Z,8.39
2022-08-09T05:06:32.651Z,7.69
2022-08-09T05:07:31.714Z,7.30
2022-08-09T05:08:28.230Z,7.59
2022-08-09T05:09:42.231Z,8.00
2022-08-09T05:10:27.747Z,7.80
2022-08-09T05:11:27.740Z,7.30
2022-08-09T05:12:27.729Z,6.59
2022-08-09T05:13:27.719Z,7.40
2022-08-09T05:14:27.712Z,9.80
2022-08-09T05:15:39.357Z,7.50
2022-08-09T05:16:32.048Z,7.59
2022-08-09T05:18:38.209Z,7.19
2022-08-09T05:18:39.850Z,8.00
2022-08-09T05:19:44.482Z,7.80
2022-08-09T05:20:30.346Z,7.59
2022-08-09T05:21:30.202Z,7.30
2022-08-09T05:22:36.142Z,7.59
2022-08-09T05:23:53.517Z,7.80
2022-08-09T05:24:28.627Z,7.50
2022-08-09T05:25:28.332Z,7.30
2022-08-09T05:26:36.014Z,7.40
2022-08-09T05:27:27.576Z,7.00
2022-08-09T05:28:27.566Z,7.30
2022-08-09T05:29:31.624Z,7.00
2022-08-09T05:30:30.112Z,7.09
2022-08-09T05:31:45.009Z,7.19
2022-08-09T05:32:30.042Z,7.19
2022-08-09T05:33:33.037Z,7.09
2022-08-09T05:34:30.104Z,7.00
2022-08-09T05:35:27.496Z,7.09
2022-08-09T05:36:28.958Z,6.59
2022-08-09T05:37:27.475Z,7.00
2022-08-09T05:38:28.034Z,6.59
2022-08-09T05:39:29.384Z,7.00
2022-08-09T05:40:27.442Z,6.50
2022-08-09T05:41:27.434Z,6.59
2022-08-09T05:42:28.032Z,6.59
2022-08-09T05:43:31.746Z,6.80
2022-08-09T05:44:29.181Z,6.69
2022-08-09T05:45:27.390Z,6.40
2022-08-09T05:46:27.384Z,6.69
2022-08-09T05:47:30.374Z,6.19
2022-08-09T05:48:32.752Z,6.09
2022-08-09T05:50:19.558Z,6.40
2022-08-09T05:50:50.708Z,6.59
2022-08-09T05:51:42.378Z,6.40
2022-08-09T05:52:27.359Z,5.90
2022-08-09T05:53:32.103Z,6.09
2022-08-09T05:54:28.326Z,5.80
2022-08-09T05:55:27.295Z,5.59
2022-08-09T05:56:27.283Z,5.80
2022-08-09T05:57:51.178Z,6.30
2022-08-09T05:58:28.285Z,5.59
2022-08-09T05:59:27.254Z,6.50
2022-08-09T06:00:28.672Z,6.09
2022-08-09T06:01:27.237Z,6.40
2022-08-09T06:02:28.358Z,6.09
2022-08-09T06:03:34.891Z,6.69
2022-08-09T06:04:35.094Z,6.30
2022-08-09T06:05:31.050Z,6.09
2022-08-09T06:06:27.188Z,6.19
2022-08-09T06:07:27.174Z,6.40
2022-08-09T06:08:27.169Z,6.00
2022-08-09T06:09:54.577Z,6.30
2022-08-09T06:10:28.165Z,6.40
2022-08-09T06:11:41.111Z,6.40
2022-08-09T06:12:28.213Z,6.59
2022-08-09T06:13:28.765Z,6.50
2022-08-09T06:14:28.587Z,7.00
2022-08-09T06:15:27.100Z,6.19
2022-08-09T06:16:27.085Z,6.19
2022-08-09T06:17:27.079Z,6.50
2022-08-09T06:18:27.066Z,6.50
2022-08-09T06:19:27.684Z,6.40
2022-08-09T06:20:27.105Z,6.09
2022-08-09T06:21:27.041Z,6.09
2022-08-09T06:22:29.025Z,5.90
2022-08-09T06:23:58.236Z,6.19
2022-08-09T06:24:28.026Z,5.90
2022-08-09T06:25:26.993Z,6.00
2022-08-09T06:26:28.152Z,6.00
2022-08-09T06:27:42.481Z,6.09
2022-08-09T06:28:27.532Z,6.30
2022-08-09T06:29:27.176Z,6.09
2022-08-09T06:30:26.967Z,6.09
2022-08-09T06:31:30.443Z,6.09
2022-08-09T06:33:13.789Z,6.30
2022-08-09T06:33:39.991Z,5.69
2022-08-09T06:34:29.901Z,5.90
2022-08-09T06:35:55.746Z,5.59
2022-08-09T06:36:29.985Z,5.90
2022-08-09T06:37:29.055Z,5.90
2022-08-09T06:38:37.152Z,5.69
2022-08-09T06:39:38.775Z,5.69
2022-08-09T06:40:27.946Z,5.80
2022-08-09T06:42:07.705Z,5.19
2022-08-09T06:42:30.783Z,5.09
2022-08-09T06:43:26.813Z,5.30
2022-08-09T06:44:26.812Z,5.00
2022-08-09T06:46:07.443Z,5.00
2022-08-09T06:46:40.302Z,5.30
2022-08-09T06:47:40.110Z,5.19
2022-08-09T06:48:30.340Z,5.40
2022-08-09T06:49:44.918Z,5.09
2022-08-09T06:50:27.764Z,5.19
2022-08-09T06:51:26.730Z,5.09
2022-08-09T06:52:26.812Z,5.59
2022-08-09T06:53:26.712Z,5.69
2022-08-09T06:54:26.703Z,5.90
2022-08-09T06:55:26.691Z,5.90
2022-08-09T06:56:30.798Z,6.00
2022-08-09T06:58:01.423Z,5.40
2022-08-09T07:00:46.356Z,5.19
2022-08-09T07:00:49.123Z,6.19
2022-08-09T07:00:54.635Z,5.59
2022-08-09T07:01:27.574Z,5.90
2022-08-09T07:02:29.298Z,5.90
2022-08-09T07:03:28.330Z,6.50
2022-08-09T07:04:26.897Z,6.40
2022-08-09T07:05:53.667Z,6.80
2022-08-09T07:06:28.047Z,6.09
2022-08-09T07:07:58.768Z,6.30
2022-08-09T07:08:27.589Z,6.30
2022-08-09T07:09:56.535Z,6.50
2022-08-09T07:10:32.013Z,6.40
2022-08-09T07:11:26.537Z,6.09
2022-08-09T07:12:37.896Z,5.69
2022-08-09T07:13:29.697Z,6.09
2022-08-09T07:14:27.329Z,5.80
2022-08-09T07:15:53.793Z,6.00
2022-08-09T07:16:41.909Z,6.30
2022-08-09T07:17:27.599Z,6.19
2022-08-09T07:18:27.488Z,6.09
2022-08-09T07:19:26.459Z,6.40
2022-08-09T07:20:26.446Z,6.59
2022-08-09T07:21:26.440Z,6.80
2022-08-09T07:22:34.879Z,6.69
2022-08-09T07:23:26.418Z,6.80
2022-08-09T07:24:32.406Z,6.30
2022-08-09T07:25:27.427Z,6.69
2022-08-09T07:26:26.387Z,6.50
2022-08-09T07:27:33.895Z,6.69
2022-08-09T07:28:28.272Z,6.90
2022-08-09T07:29:26.361Z,6.50
2022-08-09T07:30:31.109Z,6.50
2022-08-09T07:31:26.345Z,7.09
2022-08-09T07:32:32.215Z,6.69
2022-08-09T07:33:27.336Z,6.19
2022-08-09T07:34:26.311Z,6.50
2022-08-09T07:35:26.302Z,6.59
2022-08-09T07:36:26.293Z,6.50
2022-08-09T07:37:26.279Z,6.59
2022-08-09T07:38:26.269Z,6.59
2022-08-09T07:39:40.795Z,6.50
2022-08-09T07:40:37.267Z,6.59
2022-08-09T07:41:27.257Z,6.40
2022-08-09T07:42:32.883Z,6.59
2022-08-09T07:43:29.145Z,6.09
2022-08-09T07:44:51.203Z,6.80
2022-08-09T07:45:39.225Z,6.90
2022-08-09T07:46:27.755Z,6.50
2022-08-09T07:47:26.221Z,6.90
2022-08-09T07:48:30.426Z,6.50
2022-08-09T07:49:26.161Z,6.69
2022-08-09T07:50:34.681Z,6.69
2022-08-09T07:52:06.366Z,6.50
2022-08-09T07:52:27.230Z,7.00
2022-08-09T07:53:45.131Z,6.50
2022-08-09T07:54:30.155Z,6.69
2022-08-09T07:55:28.629Z,6.40
2022-08-09T07:56:26.896Z,6.30
2022-08-09T07:57:33.878Z,6.50
2022-08-09T07:58:27.094Z,6.40
2022-08-09T07:59:34.422Z,6.30
2022-08-09T08:00:35.899Z,7.19
2022-08-09T08:01:34.275Z,6.50
2022-08-09T08:02:27.309Z,6.50
2022-08-09T08:03:26.929Z,6.69
2022-08-09T08:04:31.749Z,6.59
2022-08-09T08:05:27.023Z,6.40
2022-08-09T08:06:32.127Z,6.69
2022-08-09T08:08:43.469Z,6.59
2022-08-09T08:09:00.938Z,6.59
2022-08-09T08:09:36.407Z,6.59
2022-08-09T08:10:27.338Z,6.50
2022-08-09T08:12:09.662Z,6.09
2022-08-09T08:12:34.456Z,6.09
2022-08-09T08:13:26.943Z,6.40
2022-08-09T08:14:26.937Z,6.30
2022-08-09T08:15:25.905Z,6.59
2022-08-09T08:16:31.833Z,6.30
2022-08-09T08:17:52.155Z,6.40
2022-08-09T08:18:26.992Z,6.30
2022-08-09T08:19:30.973Z,6.19
2022-08-09T08:20:30.400Z,6.30
2022-08-09T08:21:26.865Z,6.19
2022-08-09T08:22:25.844Z,6.40
2022-08-09T08:23:27.247Z,7.00
2022-08-09T08:24:27.125Z,6.59
2022-08-09T08:25:40.139Z,6.69
2022-08-09T08:26:54.547Z,6.50
2022-08-09T08:27:26.803Z,6.59
2022-08-09T08:28:32.904Z,6.40
2022-08-09T08:29:28.039Z,6.59
2022-08-09T08:30:25.755Z,6.19
2022-08-09T08:32:02.214Z,6.40
2022-08-09T08:32:41.581Z,6.90
2022-08-09T08:33:26.748Z,6.80
2022-08-09T08:34:25.762Z,6.19
2022-08-09T08:35:25.709Z,6.50
2022-08-09T08:36:28.775Z,6.40
2022-08-09T08:37:25.687Z,6.50
2022-08-09T08:38:27.977Z,6.40
2022-08-09T08:39:25.756Z,6.80
2022-08-09T08:40:25.658Z,6.69
2022-08-09T08:41:38.698Z,6.59
2022-08-09T08:42:32.151Z,6.59
2022-08-09T08:43:26.522Z,6.59
2022-08-09T08:44:29.314Z,6.59
2022-08-09T08:45:37.327Z,7.00
2022-08-09T08:46:33.505Z,7.30
2022-08-09T08:47:27.579Z,6.69
2022-08-09T08:48:29.133Z,6.19
2022-08-09T08:49:33.374Z,6.30
2022-08-09T08:50:26.579Z,6.40
2022-08-09T08:51:25.554Z,6.80
2022-08-09T08:53:32.207Z,7.09
2022-08-09T08:54:28.101Z,7.09
2022-08-09T08:55:25.510Z,6.59
2022-08-09T08:56:28.209Z,6.30
2022-08-09T08:57:25.495Z,6.80
2022-08-09T08:58:27.399Z,6.40
2022-08-09T08:59:28.090Z,6.80
2022-08-09T09:00:27.517Z,6.90
2022-08-09T09:01:45.016Z,6.69
2022-08-09T09:02:31.897Z,6.59
2022-08-09T09:03:33.228Z,6.69
2022-08-09T09:04:26.788Z,6.90
2022-08-09T09:05:33.382Z,6.30
2022-08-09T09:06:26.485Z,6.69
2022-08-09T09:07:25.395Z,6.40
2022-08-09T09:08:29.988Z,6.69
2022-08-09T09:09:58.190Z,6.80
2022-08-09T09:10:26.788Z,6.50
2022-08-09T09:11:25.358Z,7.19
2022-08-09T09:12:25.349Z,6.40
2022-08-09T09:13:41.828Z,6.50
2022-08-09T09:14:25.329Z,6.69
2022-08-09T09:15:28.047Z,6.30
2022-08-09T09:16:29.737Z,6.69
2022-08-09T09:17:41.129Z,6.40
2022-08-09T09:18:26.309Z,6.80
2022-08-09T09:19:41.904Z,6.80
2022-08-09T09:20:27.636Z,6.90
2022-08-09T09:21:25.288Z,7.09
2022-08-09T09:22:28.628Z,6.69
2022-08-09T09:23:25.239Z,6.50
2022-08-09T09:24:26.247Z,6.90
2022-08-09T09:26:00.867Z,6.59
2022-08-09T09:26:26.324Z,6.59
2022-08-09T09:28:05.126Z,6.90
2022-08-09T09:29:02.924Z,7.00
2022-08-09T09:29:26.201Z,6.90
2022-08-09T09:30:39.987Z,6.30
2022-08-09T09:32:06.221Z,6.30
2022-08-09T09:32:34.283Z,6.80
2022-08-09T09:33:26.165Z,6.50
2022-08-09T09:34:25.139Z,6.69
2022-08-09T09:35:26.456Z,6.30
2022-08-09T09:36:26.142Z,6.69
2022-08-09T09:37:25.112Z,6.19
2022-08-09T09:38:27.868Z,6.09
2022-08-09T09:39:25.682Z,6.09
2022-08-09T09:40:26.139Z,6.19
2022-08-09T09:41:25.115Z,6.50
2022-08-09T09:42:25.254Z,6.80
2022-08-09T09:43:25.052Z,5.69
2022-08-09T09:44:25.597Z,6.30
2022-08-09T09:45:26.506Z,6.69
2022-08-09T09:46:42.810Z,6.90
2022-08-09T09:47:26.038Z,6.80
2022-08-09T09:48:25.006Z,6.69
2022-08-09T09:49:56.122Z,6.30
2022-08-09T09:50:26.009Z,6.59
2022-08-09T09:51:38.040Z,6.50
2022-08-09T09:52:36.356Z,6.50
2022-08-09T09:53:25.097Z,6.40
2022-08-09T09:54:25.970Z,6.69
2022-08-09T09:55:32.089Z,6.69
2022-08-09T09:56:31.510Z,6.59
2022-08-09T09:58:03.045Z,6.30
2022-08-09T09:58:25.941Z,6.40
2022-08-09T09:59:29.040Z,6.50
2022-08-09T10:00:26.777Z,6.69
2022-08-09T10:01:37.359Z,6.69
2022-08-09T10:02:25.998Z,6.00
2022-08-09T10:03:24.900Z,6.90
2022-08-09T10:04:31.070Z,7.00
2022-08-09T10:05:27.223Z,6.69
2022-08-09T10:06:25.871Z,7.30
2022-08-09T10:07:24.951Z,6.50
2022-08-09T10:08:27.680Z,6.40
2022-08-09T10:09:24.817Z,6.09
2022-08-09T10:10:24.809Z,6.50
2022-08-09T10:11:54.028Z,6.19
2022-08-09T10:12:28.467Z,6.30
2022-08-09T10:13:43.150Z,6.30
2022-08-09T10:14:30.394Z,6.19
2022-08-09T10:15:50.709Z,6.40
2022-08-09T10:16:56.882Z,6.50
2022-08-09T10:17:50.101Z,6.40
2022-08-09T10:18:24.739Z,6.59
2022-08-09T10:19:24.731Z,6.50
2022-08-09T10:20:32.125Z,6.40
2022-08-09T10:21:25.735Z,6.19
2022-08-09T10:22:29.321Z,6.30
2022-08-09T10:23:28.785Z,6.00
2022-08-09T10:24:25.676Z,5.69
2022-08-09T10:25:25.707Z,6.19
2022-08-09T10:26:26.868Z,6.50
2022-08-09T10:27:28.720Z,5.59
2022-08-09T10:28:24.652Z,6.40
2022-08-09T10:30:22.754Z,6.30
2022-08-09T10:32:49.915Z,6.80
2022-08-09T10:34:04.848Z,6.00
2022-08-09T10:34:33.676Z,5.80
2022-08-09T10:35:24.594Z,5.90
2022-08-09T10:36:24.582Z,6.30
2022-08-09T10:37:24.576Z,6.50
2022-08-09T10:38:55.326Z,6.30
2022-08-09T10:39:26.906Z,6.30
2022-08-09T10:40:32.461Z,5.90
2022-08-09T10:41:25.566Z,6.30
2022-08-09T10:42:26.900Z,5.80
2022-08-09T10:43:24.523Z,5.90
2022-08-09T10:44:25.533Z,5.80
2022-08-09T10:45:24.506Z,5.80
2022-08-09T10:46:25.428Z,6.00
2022-08-09T10:48:16.935Z,6.00
2022-08-09T10:48:30.508Z,6.19
2022-08-09T10:49:24.483Z,6.00
2022-08-09T10:50:30.671Z,5.90
2022-08-09T10:51:29.467Z,5.69
2022-08-09T10:52:26.421Z,5.80
2022-08-09T10:53:24.437Z,5.80
2022-08-09T10:54:24.427Z,6.19
2022-08-09T10:55:24.430Z,6.19
2022-08-09T10:56:24.410Z,5.80
2022-08-09T10:57:24.400Z,5.69
2022-08-09T10:58:25.564Z,6.30
2022-08-09T10:59:30.720Z,6.09
2022-08-09T11:00:24.377Z,5.90
2022-08-09T11:03:14.667Z,5.80
2022-08-09T11:03:14.732Z,5.59
2022-08-09T11:03:51.326Z,5.59
2022-08-09T11:04:31.720Z,6.09
2022-08-09T11:05:30.158Z,5.69
2022-08-09T11:06:24.325Z,5.50
2022-08-09T11:07:24.317Z,5.59
2022-08-09T11:08:30.177Z,5.19
2022-08-09T11:09:25.322Z,5.90
2022-08-09T11:10:26.830Z,5.59
2022-08-09T11:11:24.284Z,5.40
2022-08-09T11:12:29.550Z,5.80
2022-08-09T11:13:49.825Z,5.69
2022-08-09T11:14:28.112Z,5.19
2022-08-09T11:15:24.393Z,5.69
2022-08-09T11:16:34.862Z,5.40
2022-08-09T11:17:24.232Z,5.50
2022-08-09T11:18:24.227Z,5.40
2022-08-09T11:19:24.216Z,5.40
2022-08-09T11:20:25.231Z,5.40
2022-08-09T11:21:24.200Z,5.30
2022-08-09T11:22:25.675Z,5.59
2022-08-09T11:23:29.944Z,5.40
2022-08-09T11:24:25.196Z,5.30
2022-08-09T11:25:25.969Z,5.50
2022-08-09T11:26:25.178Z,5.69
2022-08-09T11:28:02.602Z,5.59
2022-08-09T11:28:30.584Z,5.50
2022-08-09T11:30:06.393Z,5.69
2022-08-09T11:30:33.237Z,5.40
2022-08-09T11:31:34.211Z,5.30
2022-08-09T11:32:25.157Z,5.69
2022-08-09T11:33:24.099Z,5.40
2022-08-09T11:34:24.095Z,5.09
2022-08-09T11:35:34.725Z,4.90
2022-08-09T11:36:30.209Z,5.09
2022-08-09T11:37:24.066Z,5.40
2022-08-09T11:38:32.186Z,5.30
2022-08-09T11:39:24.121Z,5.80
2022-08-09T11:40:24.047Z,5.50
2022-08-09T11:41:24.033Z,5.59
2022-08-09T11:42:25.049Z,5.30
2022-08-09T11:43:24.015Z,5.69
2022-08-09T11:44:24.008Z,5.09
2022-08-09T11:45:26.345Z,4.90
2022-08-09T11:46:32.983Z,4.90
2022-08-09T11:47:25.004Z,5.09
2022-08-09T11:48:25.059Z,5.19
2022-08-09T11:49:28.004Z,5.59
2022-08-09T11:50:54.886Z,5.40
2022-08-09T11:52:56.779Z,5.30
2022-08-09T11:53:02.283Z,5.09
2022-08-09T11:53:58.514Z,5.00
2022-08-09T11:54:29.810Z,5.40
2022-08-09T11:55:39.845Z,5.00
2022-08-09T11:56:34.331Z,4.69
2022-08-09T11:57:47.024Z,5.09
2022-08-09T11:58:30.140Z,5.19
2022-08-09T11:59:24.915Z,5.09
2022-08-09T12:00:27.612Z,5.50
2022-08-09T12:02:17.752Z,5.09
2022-08-09T12:02:51.110Z,4.59
2022-08-09T12:03:54.800Z,5.09
2022-08-09T12:04:28.688Z,4.90
2022-08-09T12:05:24.913Z,5.30
2022-08-09T12:06:24.770Z,4.90
2022-08-09T12:07:23.817Z,5.19
2022-08-09T12:08:23.812Z,5.30
2022-08-09T12:09:23.801Z,5.50
2022-08-09T12:10:39.970Z,5.19
2022-08-09T12:11:24.807Z,5.19
2022-08-09T12:12:29.046Z,5.00
2022-08-09T12:14:09.289Z,5.09
2022-08-09T12:14:36.517Z,4.69
2022-08-09T12:15:48.347Z,5.40
2022-08-09T12:16:37.667Z,4.90
2022-08-09T12:17:28.172Z,4.80
2022-08-09T12:18:26.172Z,4.90
2022-08-09T12:19:23.719Z,4.69
2022-08-09T12:20:23.807Z,5.00
2022-08-09T12:21:28.578Z,4.80
2022-08-09T12:22:23.691Z,5.00
2022-08-09T12:23:24.761Z,4.50
2022-08-09T12:24:25.265Z,4.69
2022-08-09T12:25:37.649Z,4.80
2022-08-09T12:26:26.384Z,4.90
2022-08-09T12:29:10.556Z,4.90
2022-08-09T12:29:13.810Z,4.69
2022-08-09T12:29:33.090Z,4.40
2022-08-09T12:30:36.785Z,4.90
2022-08-09T12:31:58.703Z,5.09
2022-08-09T12:32:23.613Z,4.80
2022-08-09T12:33:23.604Z,4.80
2022-08-09T12:34:24.615Z,4.69
2022-08-09T12:35:23.590Z,4.80
2022-08-09T12:36:32.216Z,4.69
2022-08-09T12:37:54.124Z,4.40
2022-08-09T12:38:29.587Z,4.69
2022-08-09T12:39:24.640Z,4.69
2022-08-09T12:40:24.745Z,4.30
2022-08-09T12:42:25.880Z,4.40
2022-08-09T12:42:27.290Z,4.69
2022-08-09T12:44:06.625Z,4.80
2022-08-09T12:44:27.247Z,4.50
2022-08-09T12:45:34.672Z,4.40
2022-08-09T12:46:28.244Z,4.80
2022-08-09T12:47:27.214Z,4.50
2022-08-09T12:48:33.133Z,4.40
2022-08-09T12:49:28.221Z,4.80
2022-08-09T12:50:27.198Z,4.59
2022-08-09T12:56:10.798Z,4.69
2022-08-09T12:56:12.519Z,4.09
2022-08-09T12:56:15.186Z,4.59
2022-08-09T12:56:55.316Z,4.30
2022-08-09T12:57:55.303Z,4.59
2022-08-09T12:58:57.951Z,4.59
2022-08-09T16:01:39.054Z,4.19
2022-08-09T16:01:40.887Z,4.19
2022-08-09T16:07:39.228Z,4.30
2022-08-09T16:07:45.983Z,4.00
2022-08-09T16:10:06.736Z,4.00
2022-08-09T16:10:17.145Z,3.90
2022-08-09T16:11:13.716Z,4.00
2022-08-09T16:12:55.415Z,4.09
2022-08-09T16:13:18.700Z,4.00
2022-08-09T16:14:13.739Z,3.90
2022-08-09T16:16:10.399Z,4.00
2022-08-09T16:16:18.631Z,4.00
2022-08-09T16:17:12.630Z,4.00
2022-08-09T16:18:12.622Z,3.79
2022-08-09T16:19:13.547Z,3.79
2022-08-09T16:20:12.865Z,4.00
2022-08-09T16:21:12.598Z,3.90
2022-08-09T16:22:15.770Z,4.09
2022-08-09T16:23:12.580Z,3.70
2022-08-09T16:24:19.975Z,4.80
2022-08-09T16:25:13.587Z,4.00
2022-08-09T16:26:19.977Z,4.00
2022-08-09T16:27:13.571Z,3.79
2022-08-09T16:28:13.815Z,4.19
2022-08-09T16:29:12.903Z,3.79
2022-08-09T16:30:15.052Z,4.40
2022-08-09T16:31:16.122Z,4.30
2022-08-09T16:32:33.426Z,3.90
2022-08-09T16:33:15.723Z,3.90
2022-08-09T16:34:12.500Z,4.50
2022-08-09T16:35:12.491Z,4.19
2022-08-09T16:36:18.596Z,4.19
2022-08-09T16:37:12.492Z,4.30
2022-08-09T16:38:12.465Z,4.50
2022-08-09T16:39:12.492Z,4.19
2022-08-09T16:40:12.546Z,4.40
2022-08-09T16:41:16.544Z,4.19
2022-08-09T16:42:14.807Z,4.40
2022-08-09T16:43:12.423Z,4.50
2022-08-09T16:44:12.415Z,4.40
2022-08-09T16:45:12.426Z,4.59
2022-08-09T16:46:12.580Z,4.40
2022-08-09T16:48:40.061Z,4.40
2022-08-09T16:48:42.024Z,4.40
2022-08-09T16:49:27.073Z,4.40
2022-08-09T16:50:32.498Z,4.80
2022-08-09T16:51:13.674Z,4.80
2022-08-09T16:52:12.347Z,4.40
2022-08-09T16:53:12.337Z,4.69
2022-08-09T16:54:25.697Z,4.90
2022-08-09T16:55:15.699Z,4.69
2022-08-09T16:56:12.315Z,4.69
2022-08-09T16:57:12.306Z,4.50
2022-08-09T16:58:12.297Z,4.59
2022-08-09T16:59:12.286Z,4.59
2022-08-09T17:00:12.280Z,5.00
2022-08-09T17:01:12.321Z,4.59
2022-08-09T17:02:12.258Z,4.50
2022-08-09T17:03:21.049Z,4.80
2022-08-09T17:04:25.674Z,4.69
2022-08-09T17:05:13.253Z,4.59
2022-08-09T17:06:28.850Z,4.59
2022-08-09T17:08:42.777Z,4.80
2022-08-09T17:08:43.599Z,4.80
2022-08-09T17:09:46.194Z,4.69
2022-08-09T17:10:13.214Z,4.80
2022-08-09T17:11:12.181Z,4.69
2022-08-09T17:12:12.175Z,4.90
2022-08-09T17:13:12.161Z,5.19
2022-08-09T17:14:26.704Z,4.80
2022-08-09T17:15:31.463Z,5.09
2022-08-09T17:16:13.159Z,5.69
2022-08-09T17:17:12.849Z,5.19
2022-08-09T17:18:13.140Z,4.80
2022-08-09T17:19:12.110Z,5.19
2022-08-09T17:20:33.048Z,5.19
2022-08-09T17:21:13.110Z,5.30
2022-08-09T17:22:12.083Z,5.19
2022-08-09T17:23:14.765Z,5.50
2022-08-09T17:24:21.190Z,5.00
2022-08-09T17:25:13.076Z,5.30
2022-08-09T17:26:12.433Z,5.30
2022-08-09T17:27:15.488Z,5.09
2022-08-09T17:28:12.030Z,5.30
2022-08-09T17:29:20.491Z,5.19
2022-08-09T17:30:14.278Z,5.19
2022-08-09T17:31:12.004Z,5.19
2022-08-09T17:32:11.998Z,5.19
2022-08-09T17:33:22.778Z,5.40
2022-08-09T17:35:01.081Z,5.40
2022-08-09T17:35:12.992Z,5.30
2022-08-09T17:36:15.894Z,5.80
2022-08-09T17:37:19.732Z,5.50
2022-08-09T17:38:30.720Z,5.59
2022-08-09T17:39:11.981Z,5.50
2022-08-09T17:40:17.013Z,5.59
2022-08-09T17:41:11.913Z,5.69
2022-08-09T17:42:41.996Z,5.69
2022-08-09T17:43:33.740Z,5.59
2022-08-09T17:44:38.452Z,5.59
2022-08-09T17:45:16.067Z,6.19
2022-08-09T17:46:12.923Z,5.90
2022-08-09T17:47:11.860Z,5.50
2022-08-09T17:48:11.849Z,6.09
2022-08-09T17:49:11.838Z,5.90
2022-08-09T17:50:17.349Z,5.69
2022-08-09T17:51:18.379Z,5.69
2022-08-09T17:52:21.968Z,5.80
2022-08-09T17:53:19.603Z,5.90
2022-08-09T17:54:12.813Z,6.40
2022-08-09T17:55:11.783Z,5.90
2022-08-09T17:56:11.786Z,6.40
2022-08-09T17:57:20.758Z,5.30
2022-08-09T17:58:12.775Z,6.00
2022-08-09T17:59:16.033Z,6.09
2022-08-09T18:00:11.736Z,5.80
2022-08-09T18:01:22.179Z,6.09
2022-08-09T18:02:19.740Z,6.30
2022-08-09T18:03:11.826Z,5.90
2022-08-09T18:04:11.699Z,5.69
2022-08-09T18:05:12.915Z,5.80
2022-08-09T18:06:14.766Z,6.00
2022-08-09T18:07:23.214Z,6.30
2022-08-09T18:08:13.233Z,5.90
2022-08-09T18:09:11.648Z,6.30
2022-08-09T18:10:11.639Z,5.50
2022-08-09T18:11:11.627Z,6.00
2022-08-09T18:12:17.599Z,6.09
2022-08-09T18:13:39.685Z,5.90
2022-08-09T18:14:14.751Z,6.50
2022-08-09T18:15:12.076Z,5.90
2022-08-09T18:16:12.029Z,6.50
2022-08-09T18:17:11.572Z,6.19
2022-08-09T18:18:25.361Z,6.19
2022-08-09T18:20:54.498Z,6.40
2022-08-09T18:20:56.294Z,6.30
2022-08-09T18:21:22.932Z,6.30
2022-08-09T18:22:13.314Z,6.30
2022-08-09T18:24:08.588Z,5.80
2022-08-09T18:24:14.583Z,6.50
2022-08-09T18:25:11.500Z,6.30
2022-08-09T18:26:11.487Z,6.59
2022-08-09T18:27:13.682Z,6.50
2022-08-09T18:28:21.560Z,6.90
2022-08-09T18:30:38.428Z,6.69
2022-08-09T18:30:41.573Z,6.30
2022-08-09T18:31:12.463Z,6.90
2022-08-09T18:32:11.427Z,6.80
2022-08-09T18:33:13.492Z,6.30
2022-08-09T18:34:11.408Z,6.40
2022-08-09T18:35:11.398Z,6.19
2022-08-09T18:36:14.423Z,6.50
2022-08-09T18:37:47.798Z,6.50
2022-08-09T18:38:12.635Z,6.50
2022-08-09T18:39:16.888Z,6.59
2022-08-09T18:40:11.352Z,6.59
2022-08-09T18:41:11.347Z,6.40
2022-08-09T18:42:11.332Z,6.
2022-08-09T18:43:11.323Z,6.
2022-08-09T18:44:12.859Z,6.
2022-08-09T18:45:21.456Z,6.
2022-08-09T18:46:47.970Z,6.
2022-08-09T18:47:15.784Z,6.
2022-08-09T18:48:11.272Z,6.
2022-08-09T18:49:12.282Z,6.
2022-08-09T18:50:12.337Z,6.
2022-08-09T18:51:11.244Z,6.
2022-08-09T18:52:11.806Z,6.
2022-08-09T18:53:16.258Z,6.
2022-08-09T18:54:16.557Z,6.
2022-08-09T18:55:13.579Z,6.
2022-08-09T18:56:11.195Z,6.
2022-08-09T18:57:11.182Z,6.
2022-08-09T18:58:11.170Z,6.
2022-08-09T18:59:12.183Z,6.
2022-08-09T19:00:11.153Z,6.
2022-08-09T19:01:11.144Z,7.
2022-08-09T19:02:11.222Z,6.
2022-08-09T19:03:11.137Z,6.
2022-08-09T19:04:11.112Z,6.
2022-08-09T19:05:20.524Z,6.
2022-08-09T19:06:12.124Z,6.
2022-08-09T19:07:11.079Z,6.
2022-08-09T19:08:14.148Z,6.
2022-08-09T19:09:20.422Z,6.
2022-08-09T19:10:15.472Z,6.
2022-08-09T19:11:11.041Z,5.
2022-08-09T19:12:11.029Z,6.
2022-08-09T19:13:20.022Z,5.
2022-08-09T19:17:10.983Z,6.
2022-08-09T19:24:32.637Z,5.
2022-08-09T19:25:41.355Z,5.
2022-08-09T19:26:11.916Z,6.
2022-08-09T19:27:10.886Z,6.
2022-08-09T19:28:13.384Z,6.
